Accueil
METAR-TAF:

METAR-TAF

Aéroports :

Aéroport international de Congonhas

São Paulo, São Paulo, Brésil

latitude: 23-37S, longitude: 046-39W, altitude: 803 m

Observation

Le bulletin a été fait il y a 51 minutes, à 01:00 UTC
Vent 10 kt de sud-est
Température 17°C
Humidité 72%
Pression 1018 hPa
Visibilité 10 km ou plus
Nuages fragmentés à une hauteur de 1500 ft

METAR: SBSP 180100Z 14010KT 9999 BKN015 17/12 Q1018

Heure: 23:51 (01:51 UTC)

Prévision

Le bulletin a été fait il y a 4 heures et 21 minutes, à 21:30 UTC
Prévision valable du 18 à 00 UTC au 18 à 12 UTC
Vent 7 kt de sud/sud-est
Visibilité 10 km ou plus
Nuages fragmentés à une hauteur de 1300 ft
Evoluant progressivement
du 18 à 01 UTC au 18 à 03 UTC
Ciel couvert à une hauteur de 700 ft

TAF: SBSP 172130Z 1800/1812 15007KT 9999 BKN013 TN15/1808Z TX18/1811Z BECMG 1801/1803 OVC007 RMK PGL

Observations et prévisions météorologiques de plus de 4000 aéroports (messages METAR et TAF).

Les stations disponibles sont représentées par des disques jaunes et rouges sur la carte.

Passer la souris dessus pour voir le nom de la station.

Cliquer dessus pour voir les observations et prévisions météorologiques.

Pour changer de carte: cliquez sur les boutons verts avec une croix noire pour zoomer, sur le bouton vert avec un tiret pour effectuer un zoom arrière, ou sur les flèches vertes pour les cartes adjacentes.


METAR-TAF: